AVV weather

Avalon Airport
Melbourne, Victoria, Australia

Public forecast

Using degrees Celsius for public forecast. Weather courtesy of forecast.io.

METAR (pilot weather report)

Retrieved 2017/08/16 20:30 UTC (22 minutes ago):

YMAV 162030Z AUTO 34010KT 9999 // BKN125 10/08 Q1000 RF00.0/001.2

TAF (pilot weather forecast)

Forecast is more than 6 hours old.

Retrieved 2017/08/16 12:00 UTC (9 hours ago):

TAF YMAV 161102Z 1612/1712 30016G28KT 9999 -SHRA SCT045 FM170000 29023G38KT 9999 -SHRA BKN045 FM170800 30015G27KT 9999 SCT045 INTER 1612/1614 4000 SHRA BKN025 INTER 1621/1707 4000 SHRA BKN035